sensor_id;sensor_type;location;lat;lon;timestamp;P1;durP1;ratioP1;P2;durP2;ratioP2
68718;SDS011;55696;52.138;5.444;2022-11-25T00:01:09;18.55;;;3.53;;
68718;SDS011;55696;52.138;5.444;2022-11-25T00:03:43;18.83;;;3.40;;
68718;SDS011;55696;52.138;5.444;2022-11-25T00:06:15;17.33;;;3.60;;
68718;SDS011;55696;52.138;5.444;2022-11-25T00:08:44;14.55;;;3.55;;
68718;SDS011;55696;52.138;5.444;2022-11-25T00:11:13;19.63;;;4.03;;
68718;SDS011;55696;52.138;5.444;2022-11-25T00:13:40;9.77;;;2.58;;
68718;SDS011;55696;52.138;5.444;2022-11-25T00:16:10;24.00;;;8.38;;
68718;SDS011;55696;52.138;5.444;2022-11-25T00:18:38;18.97;;;4.43;;
68718;SDS011;55696;52.138;5.444;2022-11-25T00:21:09;12.65;;;3.20;;
68718;SDS011;55696;52.138;5.444;2022-11-25T00:23:37;20.70;;;3.35;;
68718;SDS011;55696;52.138;5.444;2022-11-25T00:26:08;18.73;;;4.07;;
68718;SDS011;55696;52.138;5.444;2022-11-25T00:28:36;13.48;;;3.33;;
68718;SDS011;55696;52.138;5.444;2022-11-25T00:31:07;23.07;;;3.53;;
68718;SDS011;55696;52.138;5.444;2022-11-25T00:33:39;11.90;;;2.63;;
68718;SDS011;55696;52.138;5.444;2022-11-25T00:36:10;15.88;;;3.03;;
68718;SDS011;55696;52.138;5.444;2022-11-25T00:38:47;14.75;;;3.53;;
68718;SDS011;55696;52.138;5.444;2022-11-25T00:41:25;11.38;;;3.28;;
68718;SDS011;55696;52.138;5.444;2022-11-25T00:44:12;14.80;;;3.80;;
68718;SDS011;55696;52.138;5.444;2022-11-25T00:49:44;15.82;;;4.13;;
68718;SDS011;55696;52.138;5.444;2022-11-25T00:52:16;13.23;;;3.47;;
68718;SDS011;55696;52.138;5.444;2022-11-25T00:54:46;15.73;;;3.00;;
68718;SDS011;55696;52.138;5.444;2022-11-25T00:57:15;15.03;;;2.90;;
68718;SDS011;55696;52.138;5.444;2022-11-25T00:59:43;12.75;;;2.65;;
68718;SDS011;55696;52.138;5.444;2022-11-25T01:02:11;14.25;;;2.88;;
68718;SDS011;55696;52.138;5.444;2022-11-25T01:04:38;17.30;;;3.53;;
68718;SDS011;55696;52.138;5.444;2022-11-25T01:07:05;17.95;;;2.90;;
68718;SDS011;55696;52.138;5.444;2022-11-25T01:09:33;12.80;;;4.20;;
68718;SDS011;55696;52.138;5.444;2022-11-25T01:12:02;15.48;;;3.38;;
68718;SDS011;55696;52.138;5.444;2022-11-25T01:14:29;16.45;;;3.83;;
68718;SDS011;55696;52.138;5.444;2022-11-25T01:16:56;20.05;;;3.22;;
68718;SDS011;55696;52.138;5.444;2022-11-25T01:19:23;13.73;;;3.00;;
68718;SDS011;55696;52.138;5.444;2022-11-25T01:21:50;15.87;;;3.97;;
68718;SDS011;55696;52.138;5.444;2022-11-25T01:24:18;11.73;;;2.53;;
68718;SDS011;55696;52.138;5.444;2022-11-25T01:26:44;16.00;;;3.25;;
68718;SDS011;55696;52.138;5.444;2022-11-25T01:29:16;14.95;;;3.70;;
68718;SDS011;55696;52.138;5.444;2022-11-25T01:31:44;9.88;;;2.78;;
68718;SDS011;55696;52.138;5.444;2022-11-25T01:34:15;19.70;;;3.53;;
68718;SDS011;55696;52.138;5.444;2022-11-25T01:36:44;19.35;;;3.55;;
68718;SDS011;55696;52.138;5.444;2022-11-25T01:39:18;14.60;;;3.15;;
68718;SDS011;55696;52.138;5.444;2022-11-25T01:41:50;14.93;;;3.90;;
68718;SDS011;55696;52.138;5.444;2022-11-25T01:44:18;16.05;;;2.65;;
68718;SDS011;55696;52.138;5.444;2022-11-25T01:49:46;17.38;;;2.75;;
68718;SDS011;55696;52.138;5.444;2022-11-25T01:52:34;15.27;;;2.60;;
68718;SDS011;55696;52.138;5.444;2022-11-25T01:55:06;9.32;;;2.80;;
68718;SDS011;55696;52.138;5.444;2022-11-25T02:00:10;7.93;;;2.70;;
68718;SDS011;55696;52.138;5.444;2022-11-25T02:02:45;13.73;;;2.53;;
68718;SDS011;55696;52.138;5.444;2022-11-25T02:05:16;13.02;;;2.65;;
68718;SDS011;55696;52.138;5.444;2022-11-25T02:07:47;15.85;;;2.70;;
68718;SDS011;55696;52.138;5.444;2022-11-25T02:10:18;13.93;;;2.83;;
68718;SDS011;55696;52.138;5.444;2022-11-25T02:12:49;10.03;;;2.50;;
68718;SDS011;55696;52.138;5.444;2022-11-25T02:15:17;15.55;;;3.10;;
68718;SDS011;55696;52.138;5.444;2022-11-25T02:17:45;11.65;;;2.50;;
68718;SDS011;55696;52.138;5.444;2022-11-25T02:20:13;17.98;;;3.00;;
68718;SDS011;55696;52.138;5.444;2022-11-25T02:25:33;10.97;;;3.10;;
68718;SDS011;55696;52.138;5.444;2022-11-25T02:28:08;18.90;;;2.78;;
68718;SDS011;55696;52.138;5.444;2022-11-25T02:30:41;17.15;;;2.90;;
68718;SDS011;55696;52.138;5.444;2022-11-25T02:33:08;15.98;;;3.30;;
68718;SDS011;55696;52.138;5.444;2022-11-25T02:39:15;10.97;;;3.17;;
68718;SDS011;55696;52.138;5.444;2022-11-25T02:41:31;15.35;;;3.33;;
68718;SDS011;55696;52.138;5.444;2022-11-25T02:44:04;14.13;;;2.75;;
68718;SDS011;55696;52.138;5.444;2022-11-25T02:46:31;12.25;;;2.83;;
68718;SDS011;55696;52.138;5.444;2022-11-25T02:49:00;16.23;;;3.03;;
68718;SDS011;55696;52.138;5.444;2022-11-25T02:51:36;12.80;;;2.60;;
68718;SDS011;55696;52.138;5.444;2022-11-25T02:54:07;12.45;;;2.42;;
68718;SDS011;55696;52.138;5.444;2022-11-25T02:56:34;16.55;;;3.10;;
68718;SDS011;55696;52.138;5.444;2022-11-25T02:59:01;12.77;;;2.83;;
68718;SDS011;55696;52.138;5.444;2022-11-25T03:01:28;15.93;;;3.15;;
68718;SDS011;55696;52.138;5.444;2022-11-25T03:03:57;14.60;;;3.07;;
68718;SDS011;55696;52.138;5.444;2022-11-25T03:06:26;13.07;;;2.75;;
68718;SDS011;55696;52.138;5.444;2022-11-25T03:08:53;13.68;;;2.60;;
68718;SDS011;55696;52.138;5.444;2022-11-25T03:11:20;12.93;;;3.22;;
68718;SDS011;55696;52.138;5.444;2022-11-25T03:14:08;18.02;;;3.25;;
68718;SDS011;55696;52.138;5.444;2022-11-25T03:16:34;13.70;;;2.60;;
68718;SDS011;55696;52.138;5.444;2022-11-25T03:19:02;13.02;;;2.78;;
68718;SDS011;55696;52.138;5.444;2022-11-25T03:21:30;15.57;;;3.85;;
68718;SDS011;55696;52.138;5.444;2022-11-25T03:23:57;16.08;;;3.13;;
68718;SDS011;55696;52.138;5.444;2022-11-25T03:26:24;14.68;;;3.13;;
68718;SDS011;55696;52.138;5.444;2022-11-25T03:28:51;9.57;;;2.70;;
68718;SDS011;55696;52.138;5.444;2022-11-25T03:31:18;13.95;;;3.20;;
68718;SDS011;55696;52.138;5.444;2022-11-25T03:33:46;9.40;;;2.33;;
68718;SDS011;55696;52.138;5.444;2022-11-25T03:36:13;10.90;;;2.28;;
68718;SDS011;55696;52.138;5.444;2022-11-25T03:38:40;13.85;;;3.05;;
68718;SDS011;55696;52.138;5.444;2022-11-25T03:41:07;14.13;;;3.00;;
68718;SDS011;55696;52.138;5.444;2022-11-25T03:43:34;11.38;;;2.50;;
68718;SDS011;55696;52.138;5.444;2022-11-25T03:46:01;14.63;;;2.80;;
68718;SDS011;55696;52.138;5.444;2022-11-25T03:48:28;13.75;;;3.17;;
68718;SDS011;55696;52.138;5.444;2022-11-25T03:50:55;15.82;;;3.65;;
68718;SDS011;55696;52.138;5.444;2022-11-25T03:53:24;14.73;;;2.77;;
68718;SDS011;55696;52.138;5.444;2022-11-25T03:55:51;7.78;;;2.20;;
68718;SDS011;55696;52.138;5.444;2022-11-25T03:58:20;14.40;;;2.75;;
68718;SDS011;55696;52.138;5.444;2022-11-25T04:00:48;13.13;;;3.00;;
68718;SDS011;55696;52.138;5.444;2022-11-25T04:03:15;12.68;;;2.58;;
68718;SDS011;55696;52.138;5.444;2022-11-25T04:05:42;13.63;;;2.43;;
68718;SDS011;55696;52.138;5.444;2022-11-25T04:08:10;8.93;;;2.17;;
68718;SDS011;55696;52.138;5.444;2022-11-25T04:10:38;11.38;;;2.75;;
68718;SDS011;55696;52.138;5.444;2022-11-25T04:13:05;11.45;;;2.88;;
68718;SDS011;55696;52.138;5.444;2022-11-25T04:15:36;15.27;;;3.22;;
68718;SDS011;55696;52.138;5.444;2022-11-25T04:18:03;7.03;;;2.63;;
68718;SDS011;55696;52.138;5.444;2022-11-25T04:20:31;9.25;;;2.65;;
68718;SDS011;55696;52.138;5.444;2022-11-25T04:23:02;9.50;;;2.40;;
68718;SDS011;55696;52.138;5.444;2022-11-25T04:25:34;9.45;;;2.88;;
68718;SDS011;55696;52.138;5.444;2022-11-25T04:28:10;12.70;;;2.70;;
68718;SDS011;55696;52.138;5.444;2022-11-25T04:30:36;9.60;;;2.33;;
68718;SDS011;55696;52.138;5.444;2022-11-25T04:33:04;13.30;;;2.72;;
68718;SDS011;55696;52.138;5.444;2022-11-25T04:35:31;9.32;;;2.10;;
68718;SDS011;55696;52.138;5.444;2022-11-25T04:37:58;7.88;;;2.10;;
68718;SDS011;55696;52.138;5.444;2022-11-25T04:40:25;6.78;;;2.20;;
68718;SDS011;55696;52.138;5.444;2022-11-25T04:43:07;6.90;;;2.30;;
68718;SDS011;55696;52.138;5.444;2022-11-25T04:45:39;8.20;;;2.20;;
68718;SDS011;55696;52.138;5.444;2022-11-25T04:48:26;6.72;;;1.73;;
68718;SDS011;55696;52.138;5.444;2022-11-25T04:50:54;7.68;;;2.22;;
68718;SDS011;55696;52.138;5.444;2022-11-25T04:53:21;4.82;;;1.42;;
68718;SDS011;55696;52.138;5.444;2022-11-25T04:55:48;5.73;;;1.60;;
68718;SDS011;55696;52.138;5.444;2022-11-25T04:58:15;4.32;;;1.42;;
68718;SDS011;55696;52.138;5.444;2022-11-25T05:01:03;4.53;;;1.40;;
68718;SDS011;55696;52.138;5.444;2022-11-25T05:03:30;5.78;;;1.55;;
68718;SDS011;55696;52.138;5.444;2022-11-25T05:05:57;6.00;;;1.70;;
68718;SDS011;55696;52.138;5.444;2022-11-25T05:08:24;7.93;;;1.50;;
68718;SDS011;55696;52.138;5.444;2022-11-25T05:10:51;4.15;;;1.35;;
68718;SDS011;55696;52.138;5.444;2022-11-25T05:13:17;5.05;;;1.25;;
68718;SDS011;55696;52.138;5.444;2022-11-25T05:15:44;4.07;;;1.48;;
68718;SDS011;55696;52.138;5.444;2022-11-25T05:18:13;5.00;;;2.13;;
68718;SDS011;55696;52.138;5.444;2022-11-25T05:20:43;4.83;;;1.80;;
68718;SDS011;55696;52.138;5.444;2022-11-25T05:23:12;5.53;;;1.23;;
68718;SDS011;55696;52.138;5.444;2022-11-25T05:25:38;4.60;;;1.70;;
68718;SDS011;55696;52.138;5.444;2022-11-25T05:28:23;8.20;;;1.70;;
68718;SDS011;55696;52.138;5.444;2022-11-25T05:30:51;8.48;;;1.88;;
68718;SDS011;55696;52.138;5.444;2022-11-25T05:33:18;5.40;;;1.83;;
68718;SDS011;55696;52.138;5.444;2022-11-25T05:35:52;3.72;;;1.13;;
68718;SDS011;55696;52.138;5.444;2022-11-25T05:38:35;7.55;;;1.77;;
68718;SDS011;55696;52.138;5.444;2022-11-25T05:41:03;5.05;;;1.67;;
68718;SDS011;55696;52.138;5.444;2022-11-25T05:43:31;5.90;;;1.95;;
68718;SDS011;55696;52.138;5.444;2022-11-25T05:46:02;5.47;;;1.70;;
68718;SDS011;55696;52.138;5.444;2022-11-25T05:48:31;4.90;;;1.17;;
68718;SDS011;55696;52.138;5.444;2022-11-25T05:50:59;5.85;;;1.92;;
68718;SDS011;55696;52.138;5.444;2022-11-25T05:53:27;4.10;;;1.60;;
68718;SDS011;55696;52.138;5.444;2022-11-25T05:55:56;5.55;;;1.20;;
68718;SDS011;55696;52.138;5.444;2022-11-25T05:58:55;4.07;;;1.47;;
68718;SDS011;55696;52.138;5.444;2022-11-25T06:01:31;3.30;;;1.50;;
68718;SDS011;55696;52.138;5.444;2022-11-25T06:04:02;5.70;;;1.70;;
68718;SDS011;55696;52.138;5.444;2022-11-25T06:06:29;3.28;;;1.65;;
68718;SDS011;55696;52.138;5.444;2022-11-25T06:08:57;9.23;;;1.50;;
68718;SDS011;55696;52.138;5.444;2022-11-25T06:11:24;6.53;;;1.50;;
68718;SDS011;55696;52.138;5.444;2022-11-25T06:13:51;2.92;;;1.42;;
68718;SDS011;55696;52.138;5.444;2022-11-25T06:16:19;5.35;;;1.58;;
68718;SDS011;55696;52.138;5.444;2022-11-25T06:18:52;4.50;;;1.33;;
68718;SDS011;55696;52.138;5.444;2022-11-25T06:21:19;4.78;;;1.40;;
68718;SDS011;55696;52.138;5.444;2022-11-25T06:23:46;7.03;;;1.63;;
68718;SDS011;55696;52.138;5.444;2022-11-25T06:26:17;8.32;;;1.73;;
68718;SDS011;55696;52.138;5.444;2022-11-25T06:28:46;5.00;;;1.60;;
68718;SDS011;55696;52.138;5.444;2022-11-25T06:31:15;13.23;;;2.38;;
68718;SDS011;55696;52.138;5.444;2022-11-25T06:33:52;9.50;;;1.90;;
68718;SDS011;55696;52.138;5.444;2022-11-25T06:36:20;6.07;;;1.80;;
68718;SDS011;55696;52.138;5.444;2022-11-25T06:38:48;7.22;;;2.20;;
68718;SDS011;55696;52.138;5.444;2022-11-25T06:41:17;7.95;;;2.08;;
68718;SDS011;55696;52.138;5.444;2022-11-25T06:43:44;7.97;;;1.95;;
68718;SDS011;55696;52.138;5.444;2022-11-25T06:46:15;4.80;;;1.50;;
68718;SDS011;55696;52.138;5.444;2022-11-25T06:48:49;7.40;;;2.20;;
68718;SDS011;55696;52.138;5.444;2022-11-25T06:51:17;8.93;;;2.22;;
68718;SDS011;55696;52.138;5.444;2022-11-25T06:53:44;7.82;;;2.10;;
68718;SDS011;55696;52.138;5.444;2022-11-25T06:58:40;5.55;;;2.10;;
68718;SDS011;55696;52.138;5.444;2022-11-25T07:01:12;8.23;;;2.23;;
68718;SDS011;55696;52.138;5.444;2022-11-25T07:03:40;7.28;;;2.13;;
68718;SDS011;55696;52.138;5.444;2022-11-25T07:06:07;7.30;;;2.40;;
68718;SDS011;55696;52.138;5.444;2022-11-25T07:08:34;8.27;;;3.65;;
68718;SDS011;55696;52.138;5.444;2022-11-25T07:11:06;5.93;;;1.73;;
68718;SDS011;55696;52.138;5.444;2022-11-25T07:13:35;4.07;;;1.70;;
68718;SDS011;55696;52.138;5.444;2022-11-25T07:16:03;7.38;;;2.15;;
68718;SDS011;55696;52.138;5.444;2022-11-25T07:18:31;4.53;;;2.00;;
68718;SDS011;55696;52.138;5.444;2022-11-25T07:23:32;10.55;;;2.40;;
68718;SDS011;55696;52.138;5.444;2022-11-25T07:26:07;8.03;;;2.40;;
68718;SDS011;55696;52.138;5.444;2022-11-25T07:28:37;9.70;;;3.67;;
68718;SDS011;55696;52.138;5.444;2022-11-25T07:33:53;7.70;;;2.28;;
68718;SDS011;55696;52.138;5.444;2022-11-25T07:36:21;7.35;;;2.20;;
68718;SDS011;55696;52.138;5.444;2022-11-25T07:38:49;8.27;;;2.33;;
68718;SDS011;55696;52.138;5.444;2022-11-25T07:41:17;8.60;;;2.17;;
68718;SDS011;55696;52.138;5.444;2022-11-25T07:43:46;6.63;;;2.45;;
68718;SDS011;55696;52.138;5.444;2022-11-25T07:46:28;8.27;;;2.85;;
68718;SDS011;55696;52.138;5.444;2022-11-25T07:48:58;6.95;;;2.40;;
68718;SDS011;55696;52.138;5.444;2022-11-25T07:51:34;11.63;;;2.53;;
68718;SDS011;55696;52.138;5.444;2022-11-25T07:54:04;8.45;;;2.55;;
68718;SDS011;55696;52.138;5.444;2022-11-25T07:56:33;6.95;;;2.45;;
68718;SDS011;55696;52.138;5.444;2022-11-25T07:59:01;8.80;;;2.20;;
68718;SDS011;55696;52.138;5.444;2022-11-25T08:01:28;10.73;;;2.70;;
68718;SDS011;55696;52.138;5.444;2022-11-25T08:03:55;9.27;;;2.73;;
68718;SDS011;55696;52.138;5.444;2022-11-25T08:06:23;6.88;;;2.28;;
68718;SDS011;55696;52.138;5.444;2022-11-25T08:08:52;12.85;;;2.30;;
68718;SDS011;55696;52.138;5.444;2022-11-25T08:11:22;8.07;;;2.95;;
68718;SDS011;55696;52.138;5.444;2022-11-25T08:13:50;6.55;;;2.53;;
68718;SDS011;55696;52.138;5.444;2022-11-25T08:16:18;7.10;;;3.00;;
68718;SDS011;55696;52.138;5.444;2022-11-25T08:18:46;8.43;;;2.70;;
68718;SDS011;55696;52.138;5.444;2022-11-25T08:21:14;7.30;;;2.55;;
68718;SDS011;55696;52.138;5.444;2022-11-25T08:23:42;5.47;;;2.67;;
68718;SDS011;55696;52.138;5.444;2022-11-25T08:26:13;6.97;;;2.20;;
68718;SDS011;55696;52.138;5.444;2022-11-25T08:28:42;10.57;;;2.73;;
68718;SDS011;55696;52.138;5.444;2022-11-25T08:31:14;10.27;;;2.55;;
68718;SDS011;55696;52.138;5.444;2022-11-25T08:33:43;10.13;;;2.78;;
68718;SDS011;55696;52.138;5.444;2022-11-25T08:36:10;8.93;;;3.13;;
68718;SDS011;55696;52.138;5.444;2022-11-25T08:38:38;6.47;;;2.55;;
68718;SDS011;55696;52.138;5.444;2022-11-25T08:41:10;6.30;;;2.57;;
68718;SDS011;55696;52.138;5.444;2022-11-25T08:43:38;7.22;;;2.40;;
68718;SDS011;55696;52.138;5.444;2022-11-25T08:46:06;9.65;;;3.05;;
68718;SDS011;55696;52.138;5.444;2022-11-25T08:48:34;7.43;;;2.90;;
68718;SDS011;55696;52.138;5.444;2022-11-25T08:51:01;12.55;;;3.20;;
68718;SDS011;55696;52.138;5.444;2022-11-25T08:53:33;7.67;;;3.13;;
68718;SDS011;55696;52.138;5.444;2022-11-25T08:56:00;8.57;;;2.67;;
68718;SDS011;55696;52.138;5.444;2022-11-25T08:58:27;8.45;;;2.85;;
68718;SDS011;55696;52.138;5.444;2022-11-25T09:00:53;7.65;;;2.75;;
68718;SDS011;55696;52.138;5.444;2022-11-25T09:03:20;7.20;;;2.55;;
68718;SDS011;55696;52.138;5.444;2022-11-25T09:05:47;6.83;;;2.60;;
68718;SDS011;55696;52.138;5.444;2022-11-25T09:08:15;9.80;;;3.03;;
68718;SDS011;55696;52.138;5.444;2022-11-25T09:10:42;7.93;;;2.90;;
68718;SDS011;55696;52.138;5.444;2022-11-25T09:13:09;7.25;;;2.67;;
68718;SDS011;55696;52.138;5.444;2022-11-25T09:15:37;6.75;;;2.78;;
68718;SDS011;55696;52.138;5.444;2022-11-25T09:18:06;11.67;;;2.97;;
68718;SDS011;55696;52.138;5.444;2022-11-25T09:20:35;8.95;;;2.80;;
68718;SDS011;55696;52.138;5.444;2022-11-25T09:23:05;7.50;;;2.85;;
68718;SDS011;55696;52.138;5.444;2022-11-25T09:25:33;8.90;;;2.67;;
68718;SDS011;55696;52.138;5.444;2022-11-25T09:28:00;7.55;;;2.50;;
68718;SDS011;55696;52.138;5.444;2022-11-25T09:30:28;8.93;;;2.70;;
68718;SDS011;55696;52.138;5.444;2022-11-25T09:32:55;8.63;;;2.45;;
68718;SDS011;55696;52.138;5.444;2022-11-25T09:35:22;8.82;;;2.67;;
68718;SDS011;55696;52.138;5.444;2022-11-25T09:37:50;7.72;;;2.90;;
68718;SDS011;55696;52.138;5.444;2022-11-25T09:40:26;8.40;;;2.67;;
68718;SDS011;55696;52.138;5.444;2022-11-25T09:43:19;7.03;;;2.50;;
68718;SDS011;55696;52.138;5.444;2022-11-25T09:46:28;12.85;;;2.70;;
68718;SDS011;55696;52.138;5.444;2022-11-25T09:52:13;16.83;;;2.85;;
68718;SDS011;55696;52.138;5.444;2022-11-25T09:54:52;8.38;;;2.80;;
68718;SDS011;55696;52.138;5.444;2022-11-25T10:00:36;10.38;;;3.05;;
68718;SDS011;55696;52.138;5.444;2022-11-25T10:06:15;11.65;;;3.33;;
68718;SDS011;55696;52.138;5.444;2022-11-25T10:08:54;9.52;;;3.88;;
68718;SDS011;55696;52.138;5.444;2022-11-25T10:11:49;8.33;;;2.90;;
68718;SDS011;55696;52.138;5.444;2022-11-25T10:17:10;7.75;;;2.42;;
68718;SDS011;55696;52.138;5.444;2022-11-25T10:27:59;9.77;;;2.80;;
68718;SDS011;55696;52.138;5.444;2022-11-25T10:30:46;7.78;;;2.75;;
68718;SDS011;55696;52.138;5.444;2022-11-25T10:33:36;8.05;;;2.17;;
68718;SDS011;55696;52.138;5.444;2022-11-25T10:36:19;10.05;;;2.95;;
68718;SDS011;55696;52.138;5.444;2022-11-25T10:41:20;6.30;;;2.75;;
68718;SDS011;55696;52.138;5.444;2022-11-25T10:43:49;12.93;;;3.78;;
68718;SDS011;55696;52.138;5.444;2022-11-25T10:46:35;10.95;;;2.75;;
68718;SDS011;55696;52.138;5.444;2022-11-25T10:49:26;10.48;;;3.10;;
68718;SDS011;55696;52.138;5.444;2022-11-25T10:52:08;10.70;;;3.03;;
68718;SDS011;55696;52.138;5.444;2022-11-25T10:54:37;14.52;;;3.05;;
68718;SDS011;55696;52.138;5.444;2022-11-25T10:57:15;12.13;;;2.80;;
68718;SDS011;55696;52.138;5.444;2022-11-25T10:59:55;10.82;;;2.92;;
68718;SDS011;55696;52.138;5.444;2022-11-25T11:02:36;8.18;;;3.08;;
68718;SDS011;55696;52.138;5.444;2022-11-25T11:07:37;10.68;;;2.88;;
68718;SDS011;55696;52.138;5.444;2022-11-25T11:10:13;11.60;;;3.67;;
68718;SDS011;55696;52.138;5.444;2022-11-25T11:15:23;13.15;;;3.33;;
68718;SDS011;55696;52.138;5.444;2022-11-25T11:17:52;9.50;;;3.47;;
68718;SDS011;55696;52.138;5.444;2022-11-25T11:20:30;13.68;;;3.45;;
68718;SDS011;55696;52.138;5.444;2022-11-25T11:23:01;17.52;;;3.83;;
68718;SDS011;55696;52.138;5.444;2022-11-25T11:25:38;11.40;;;3.20;;
68718;SDS011;55696;52.138;5.444;2022-11-25T11:28:28;11.60;;;2.88;;
68718;SDS011;55696;52.138;5.444;2022-11-25T11:30:56;13.53;;;3.17;;
68718;SDS011;55696;52.138;5.444;2022-11-25T11:33:33;9.80;;;2.97;;
68718;SDS011;55696;52.138;5.444;2022-11-25T11:41:54;17.52;;;3.35;;
68718;SDS011;55696;52.138;5.444;2022-11-25T11:44:55;9.33;;;3.33;;
68718;SDS011;55696;52.138;5.444;2022-11-25T11:50:24;14.10;;;3.60;;
68718;SDS011;55696;52.138;5.444;2022-11-25T11:53:03;11.88;;;2.97;;
68718;SDS011;55696;52.138;5.444;2022-11-25T12:10:30;13.13;;;3.00;;
68718;SDS011;55696;52.138;5.444;2022-11-25T12:15:54;15.95;;;3.00;;
68718;SDS011;55696;52.138;5.444;2022-11-25T12:18:44;12.65;;;2.90;;
68718;SDS011;55696;52.138;5.444;2022-11-25T12:27:34;7.70;;;2.57;;
68718;SDS011;55696;52.138;5.444;2022-11-25T12:30:09;9.00;;;2.72;;
68718;SDS011;55696;52.138;5.444;2022-11-25T12:32:45;8.65;;;2.35;;
68718;SDS011;55696;52.138;5.444;2022-11-25T12:43:34;16.20;;;2.90;;
68718;SDS011;55696;52.138;5.444;2022-11-25T12:46:19;18.27;;;3.17;;
68718;SDS011;55696;52.138;5.444;2022-11-25T12:48:55;14.70;;;2.65;;
68718;SDS011;55696;52.138;5.444;2022-11-25T12:51:40;12.80;;;3.20;;
68718;SDS011;55696;52.138;5.444;2022-11-25T12:54:17;13.93;;;2.80;;
68718;SDS011;55696;52.138;5.444;2022-11-25T13:11:07;10.27;;;2.30;;
68718;SDS011;55696;52.138;5.444;2022-11-25T13:16:18;8.57;;;2.42;;
68718;SDS011;55696;52.138;5.444;2022-11-25T13:18:47;13.27;;;2.03;;
68718;SDS011;55696;52.138;5.444;2022-11-25T13:21:16;8.57;;;2.47;;
68718;SDS011;55696;52.138;5.444;2022-11-25T13:23:51;10.02;;;2.65;;
68718;SDS011;55696;52.138;5.444;2022-11-25T13:28:54;10.70;;;2.20;;
68718;SDS011;55696;52.138;5.444;2022-11-25T13:31:23;14.90;;;3.33;;
68718;SDS011;55696;52.138;5.444;2022-11-25T13:39:37;10.05;;;2.40;;
68718;SDS011;55696;52.138;5.444;2022-11-25T13:44:54;11.60;;;2.60;;
68718;SDS011;55696;52.138;5.444;2022-11-25T13:47:34;9.83;;;2.23;;
68718;SDS011;55696;52.138;5.444;2022-11-25T13:55:31;10.55;;;2.13;;
68718;SDS011;55696;52.138;5.444;2022-11-25T13:58:02;8.57;;;2.28;;
68718;SDS011;55696;52.138;5.444;2022-11-25T14:05:47;16.73;;;2.25;;
68718;SDS011;55696;52.138;5.444;2022-11-25T14:19:16;14.32;;;2.67;;
68718;SDS011;55696;52.138;5.444;2022-11-25T14:24:46;12.27;;;2.20;;
68718;SDS011;55696;52.138;5.444;2022-11-25T14:27:19;13.93;;;2.70;;
68718;SDS011;55696;52.138;5.444;2022-11-25T14:29:58;12.75;;;3.00;;
68718;SDS011;55696;52.138;5.444;2022-11-25T14:32:36;17.10;;;3.22;;
68718;SDS011;55696;52.138;5.444;2022-11-25T14:35:16;16.52;;;2.10;;
68718;SDS011;55696;52.138;5.444;2022-11-25T14:40:35;21.20;;;2.33;;
68718;SDS011;55696;52.138;5.444;2022-11-25T14:43:11;16.88;;;2.78;;
68718;SDS011;55696;52.138;5.444;2022-11-25T14:45:42;12.32;;;2.85;;
68718;SDS011;55696;52.138;5.444;2022-11-25T14:48:13;9.57;;;2.00;;
68718;SDS011;55696;52.138;5.444;2022-11-25T14:53:21;12.63;;;2.70;;
68718;SDS011;55696;52.138;5.444;2022-11-25T14:55:48;9.50;;;2.50;;
68718;SDS011;55696;52.138;5.444;2022-11-25T14:58:15;12.07;;;2.90;;
68718;SDS011;55696;52.138;5.444;2022-11-25T15:03:47;14.98;;;3.10;;
68718;SDS011;55696;52.138;5.444;2022-11-25T15:06:15;11.67;;;2.70;;
68718;SDS011;55696;52.138;5.444;2022-11-25T15:08:51;16.13;;;3.00;;
68718;SDS011;55696;52.138;5.444;2022-11-25T15:11:21;15.88;;;3.35;;
68718;SDS011;55696;52.138;5.444;2022-11-25T15:13:57;13.27;;;3.03;;
68718;SDS011;55696;52.138;5.444;2022-11-25T15:16:30;16.15;;;3.47;;
68718;SDS011;55696;52.138;5.444;2022-11-25T15:19:03;10.67;;;2.73;;
68718;SDS011;55696;52.138;5.444;2022-11-25T15:21:36;17.60;;;3.38;;
68718;SDS011;55696;52.138;5.444;2022-11-25T15:24:29;10.27;;;2.95;;
68718;SDS011;55696;52.138;5.444;2022-11-25T15:27:18;13.10;;;2.67;;
68718;SDS011;55696;52.138;5.444;2022-11-25T15:29:50;15.45;;;3.17;;
68718;SDS011;55696;52.138;5.444;2022-11-25T15:32:28;16.80;;;4.00;;
68718;SDS011;55696;52.138;5.444;2022-11-25T15:34:58;15.85;;;3.33;;
68718;SDS011;55696;52.138;5.444;2022-11-25T15:37:26;12.82;;;4.30;;
68718;SDS011;55696;52.138;5.444;2022-11-25T15:42:58;16.08;;;3.47;;
68718;SDS011;55696;52.138;5.444;2022-11-25T15:45:41;12.97;;;3.00;;
68718;SDS011;55696;52.138;5.444;2022-11-25T15:48:24;14.90;;;2.80;;
68718;SDS011;55696;52.138;5.444;2022-11-25T15:51:00;12.05;;;3.15;;
68718;SDS011;55696;52.138;5.444;2022-11-25T15:53:32;12.10;;;3.35;;
68718;SDS011;55696;52.138;5.444;2022-11-25T15:56:03;10.30;;;3.33;;
68718;SDS011;55696;52.138;5.444;2022-11-25T15:58:31;15.03;;;4.23;;
68718;SDS011;55696;52.138;5.444;2022-11-25T16:01:20;15.05;;;3.35;;
68718;SDS011;55696;52.138;5.444;2022-11-25T16:03:49;11.18;;;3.50;;
68718;SDS011;55696;52.138;5.444;2022-11-25T16:08:54;9.52;;;2.85;;
68718;SDS011;55696;52.138;5.444;2022-11-25T16:11:22;12.03;;;3.10;;
68718;SDS011;55696;52.138;5.444;2022-11-25T16:13:51;11.73;;;3.80;;
68718;SDS011;55696;52.138;5.444;2022-11-25T16:16:19;15.07;;;4.07;;
68718;SDS011;55696;52.138;5.444;2022-11-25T16:21:28;10.35;;;3.67;;
68718;SDS011;55696;52.138;5.444;2022-11-25T16:26:32;13.82;;;4.00;;
68718;SDS011;55696;52.138;5.444;2022-11-25T16:29:15;14.30;;;4.18;;
68718;SDS011;55696;52.138;5.444;2022-11-25T16:31:43;17.00;;;5.28;;
68718;SDS011;55696;52.138;5.444;2022-11-25T16:34:13;13.82;;;4.35;;
68718;SDS011;55696;52.138;5.444;2022-11-25T16:36:42;21.90;;;5.37;;
68718;SDS011;55696;52.138;5.444;2022-11-25T16:39:09;14.73;;;4.28;;
68718;SDS011;55696;52.138;5.444;2022-11-25T16:41:35;19.95;;;4.93;;
68718;SDS011;55696;52.138;5.444;2022-11-25T16:44:03;15.57;;;4.93;;
68718;SDS011;55696;52.138;5.444;2022-11-25T16:46:36;17.92;;;4.60;;
68718;SDS011;55696;52.138;5.444;2022-11-25T16:49:06;20.03;;;4.70;;
68718;SDS011;55696;52.138;5.444;2022-11-25T16:51:38;17.63;;;4.97;;
68718;SDS011;55696;52.138;5.444;2022-11-25T16:54:04;20.85;;;6.70;;
68718;SDS011;55696;52.138;5.444;2022-11-25T16:56:32;18.05;;;6.07;;
68718;SDS011;55696;52.138;5.444;2022-11-25T16:59:00;18.83;;;7.47;;
68718;SDS011;55696;52.138;5.444;2022-11-25T17:01:29;20.17;;;6.90;;
68718;SDS011;55696;52.138;5.444;2022-11-25T17:03:56;20.73;;;7.00;;
68718;SDS011;55696;52.138;5.444;2022-11-25T17:06:23;23.95;;;7.35;;
68718;SDS011;55696;52.138;5.444;2022-11-25T17:08:51;17.55;;;6.45;;
68718;SDS011;55696;52.138;5.444;2022-11-25T17:11:34;19.85;;;6.97;;
68718;SDS011;55696;52.138;5.444;2022-11-25T17:14:33;18.80;;;6.47;;
68718;SDS011;55696;52.138;5.444;2022-11-25T17:16:59;14.45;;;6.35;;
68718;SDS011;55696;52.138;5.444;2022-11-25T17:19:28;16.20;;;6.47;;
68718;SDS011;55696;52.138;5.444;2022-11-25T17:21:55;20.13;;;6.60;;
68718;SDS011;55696;52.138;5.444;2022-11-25T17:24:22;13.48;;;6.10;;
68718;SDS011;55696;52.138;5.444;2022-11-25T17:26:54;19.33;;;5.93;;
68718;SDS011;55696;52.138;5.444;2022-11-25T17:29:44;16.13;;;6.38;;
68718;SDS011;55696;52.138;5.444;2022-11-25T17:32:11;18.13;;;6.43;;
68718;SDS011;55696;52.138;5.444;2022-11-25T17:34:38;20.17;;;7.22;;
68718;SDS011;55696;52.138;5.444;2022-11-25T17:37:06;19.27;;;6.80;;
68718;SDS011;55696;52.138;5.444;2022-11-25T17:39:38;19.23;;;7.20;;
68718;SDS011;55696;52.138;5.444;2022-11-25T17:42:05;17.60;;;6.43;;
68718;SDS011;55696;52.138;5.444;2022-11-25T17:44:32;19.92;;;8.45;;
68718;SDS011;55696;52.138;5.444;2022-11-25T17:46:59;16.80;;;6.47;;
68718;SDS011;55696;52.138;5.444;2022-11-25T17:49:25;15.75;;;7.10;;